Time;durP1;ratioP1;P1;durP2;ratioP2;P2;SDS_P1;SDS_P2;PMS_P1;PMS_P2;Temp;Humidity;BMP_temperature;BMP_pressure;BME280_temperature;BME280_humidity;BME280_pressure;Samples;Min_cycle;Max_cycle;Signal;HPM_P1;HPM_P2
2023/04/20 00:02:01;;;;;;;8.75;2.78;;;7.40;99.90;;;;;;5051944;28;20056;-58
2023/04/20 00:04:28;;;;;;;7.90;2.08;;;7.40;99.90;;;;;;5052152;28;20080;-59
2023/04/20 00:06:55;;;;;;;6.78;2.22;;;7.40;99.90;;;;;;5053404;28;20090;-59
2023/04/20 00:09:22;;;;;;;5.22;2.35;;;7.40;99.90;;;;;;5034136;28;20064;-58
2023/04/20 00:11:48;;;;;;;5.68;1.85;;;7.40;99.90;;;;;;5051597;28;20041;-58
2023/04/20 00:14:14;;;;;;;6.97;2.00;;;7.40;99.90;;;;;;5052476;28;20040;-58
2023/04/20 00:16:40;;;;;;;8.95;2.67;;;7.40;99.90;;;;;;5052024;28;20049;-59
2023/04/20 00:19:07;;;;;;;5.80;2.00;;;7.30;99.90;;;;;;5052081;28;20382;-59
2023/04/20 00:21:33;;;;;;;9.70;3.65;;;7.40;99.90;;;;;;5050620;28;20481;-58
2023/04/20 00:23:59;;;;;;;5.55;2.30;;;7.40;99.90;;;;;;5053579;28;20513;-58
2023/04/20 00:26:25;;;;;;;6.60;2.40;;;7.40;99.90;;;;;;5051419;28;20142;-58
2023/04/20 00:28:51;;;;;;;8.00;2.70;;;7.40;99.90;;;;;;5051271;28;20043;-59
2023/04/20 00:31:20;;;;;;;6.43;2.00;;;7.40;99.90;;;;;;5051684;28;20044;-59
2023/04/20 00:33:47;;;;;;;6.70;2.40;;;7.40;99.90;;;;;;5052214;28;20386;-59
2023/04/20 00:36:12;;;;;;;4.57;2.00;;;7.40;99.90;;;;;;5052333;28;20029;-58
2023/04/20 00:38:38;;;;;;;6.88;1.95;;;7.40;99.90;;;;;;5051176;28;20059;-59
2023/04/20 00:41:04;;;;;;;18.63;2.03;;;7.40;99.90;;;;;;5052942;28;20040;-58
2023/04/20 00:43:30;;;;;;;6.68;1.80;;;7.50;99.90;;;;;;5051948;28;20051;-59
2023/04/20 00:45:55;;;;;;;6.10;1.98;;;7.50;99.90;;;;;;5053340;28;20477;-58
2023/04/20 00:48:21;;;;;;;5.05;2.13;;;7.50;99.90;;;;;;5051110;28;20099;-58
2023/04/20 00:50:49;;;;;;;6.07;1.77;;;7.50;99.90;;;;;;5052000;28;20029;-58
2023/04/20 00:53:15;;;;;;;5.07;1.85;;;7.60;99.90;;;;;;5051665;28;20154;-58
2023/04/20 00:55:43;;;;;;;6.07;2.17;;;7.60;99.90;;;;;;5052543;28;20401;-58
2023/04/20 00:58:10;;;;;;;6.20;1.70;;;7.60;99.90;;;;;;5050655;28;20047;-58
2023/04/20 01:00:36;;;;;;;6.93;1.85;;;7.70;99.90;;;;;;5052096;28;20080;-59
2023/04/20 01:03:02;;;;;;;4.97;1.63;;;7.80;99.90;;;;;;5034611;28;20077;-59
2023/04/20 01:05:27;;;;;;;4.30;1.45;;;7.90;99.90;;;;;;5051670;28;20036;-58
2023/04/20 01:07:53;;;;;;;6.68;1.88;;;8.00;99.90;;;;;;5052495;28;20085;-59
2023/04/20 01:10:19;;;;;;;4.50;1.67;;;8.00;99.90;;;;;;5052664;28;20123;-59
2023/04/20 01:12:44;;;;;;;5.05;1.55;;;8.00;99.90;;;;;;5033765;28;20037;-58
2023/04/20 01:15:10;;;;;;;7.32;1.90;;;8.10;99.90;;;;;;5051021;28;20037;-58
2023/04/20 01:17:39;;;;;;;4.68;1.70;;;8.10;99.90;;;;;;5050740;28;20040;-59
2023/04/20 01:20:13;;;;;;;5.43;1.90;;;8.10;99.90;;;;;;5034546;28;20047;-58
2023/04/20 01:22:53;;;;;;;4.88;1.75;;;8.10;99.90;;;;;;5050451;28;20051;-58
2023/04/20 01:25:20;;;;;;;7.95;1.80;;;8.00;99.90;;;;;;5049678;28;20045;-58
2023/04/20 01:27:46;;;;;;;4.78;1.88;;;8.00;99.90;;;;;;5050751;28;20041;-59
2023/04/20 01:30:12;;;;;;;4.82;1.40;;;8.10;99.90;;;;;;5051091;28;20072;-58
2023/04/20 01:32:39;;;;;;;8.13;1.63;;;8.10;99.90;;;;;;5049477;28;20037;-58
2023/04/20 01:35:05;;;;;;;6.90;1.73;;;8.10;99.90;;;;;;5052035;28;20037;-58
2023/04/20 01:37:31;;;;;;;5.45;1.45;;;8.10;99.90;;;;;;5050715;28;20056;-58
2023/04/20 01:39:57;;;;;;;6.90;2.65;;;8.00;99.90;;;;;;5051323;28;20037;-58
2023/04/20 01:42:23;;;;;;;5.90;1.80;;;8.00;99.90;;;;;;5050170;28;20077;-59
2023/04/20 01:44:49;;;;;;;7.32;1.80;;;8.00;99.90;;;;;;5050987;28;20075;-58
2023/04/20 01:47:15;;;;;;;6.70;1.73;;;8.10;99.90;;;;;;5049744;28;20041;-59
2023/04/20 01:49:40;;;;;;;5.75;2.00;;;8.10;99.90;;;;;;5033775;28;20423;-58
2023/04/20 01:52:07;;;;;;;6.00;1.38;;;8.00;99.90;;;;;;5033895;28;20440;-58
2023/04/20 01:54:32;;;;;;;6.03;1.70;;;8.00;99.90;;;;;;5049147;28;20072;-58
2023/04/20 01:56:58;;;;;;;13.70;2.13;;;8.10;99.90;;;;;;5050806;28;20045;-58
2023/04/20 01:59:24;;;;;;;4.75;1.60;;;8.10;99.90;;;;;;5050060;28;20088;-58
2023/04/20 02:01:49;;;;;;;5.57;1.67;;;8.10;99.90;;;;;;5049797;28;20098;-59
2023/04/20 02:04:15;;;;;;;7.07;2.40;;;8.10;99.90;;;;;;5050613;28;20045;-59
2023/04/20 02:06:41;;;;;;;5.00;1.75;;;8.10;99.90;;;;;;5049346;28;20048;-59
2023/04/20 02:09:08;;;;;;;14.75;2.30;;;8.10;99.90;;;;;;5051686;28;20045;-59
2023/04/20 02:11:34;;;;;;;4.75;1.77;;;8.10;99.90;;;;;;5051172;28;20379;-58
2023/04/20 02:14:00;;;;;;;5.95;1.60;;;8.00;99.90;;;;;;5049637;28;20379;-59
2023/04/20 02:16:28;;;;;;;6.38;2.03;;;8.00;99.90;;;;;;5033269;28;20037;-58
2023/04/20 02:18:54;;;;;;;6.70;1.70;;;8.00;99.90;;;;;;5050576;28;20041;-58
2023/04/20 02:21:20;;;;;;;6.05;1.75;;;8.00;99.90;;;;;;5032427;28;20102;-59
2023/04/20 02:23:45;;;;;;;7.05;1.77;;;7.90;99.90;;;;;;5050816;28;20080;-59
2023/04/20 02:26:11;;;;;;;6.50;1.92;;;8.00;99.90;;;;;;5051814;28;20090;-58
2023/04/20 02:28:37;;;;;;;7.05;1.95;;;7.90;99.90;;;;;;5048860;28;20041;-58
2023/04/20 02:31:02;;;;;;;7.43;1.80;;;7.90;99.90;;;;;;5051741;28;20507;-58
2023/04/20 02:33:28;;;;;;;8.48;1.98;;;7.90;99.90;;;;;;5051236;28;20045;-59
2023/04/20 02:35:54;;;;;;;4.72;1.90;;;7.90;99.90;;;;;;5050717;28;20043;-58
2023/04/20 02:38:19;;;;;;;4.80;2.00;;;7.90;99.90;;;;;;5053731;28;20068;-58
2023/04/20 02:40:45;;;;;;;5.38;1.92;;;7.90;99.90;;;;;;5054214;28;20041;-58
2023/04/20 02:43:11;;;;;;;6.63;2.08;;;7.80;99.90;;;;;;5053143;28;20041;-59
2023/04/20 02:45:36;;;;;;;8.63;2.05;;;7.90;99.90;;;;;;5053691;28;20040;-58
2023/04/20 02:48:02;;;;;;;9.38;2.35;;;7.90;99.90;;;;;;5053811;28;20043;-58
2023/04/20 02:50:28;;;;;;;7.07;1.90;;;7.90;99.90;;;;;;5052474;28;20120;-58
2023/04/20 02:52:53;;;;;;;5.75;2.08;;;8.00;99.90;;;;;;5053913;28;20079;-59
2023/04/20 02:55:19;;;;;;;6.18;2.55;;;8.00;99.90;;;;;;5053544;28;20037;-59
2023/04/20 02:57:45;;;;;;;6.78;2.13;;;8.00;99.90;;;;;;5052752;28;20055;-58
2023/04/20 03:00:12;;;;;;;6.90;1.95;;;8.00;99.90;;;;;;5055198;28;20044;-58
2023/04/20 03:02:38;;;;;;;7.53;2.45;;;8.00;99.90;;;;;;5053026;28;20052;-58
2023/04/20 03:05:04;;;;;;;6.93;1.92;;;8.00;99.90;;;;;;5052886;28;20063;-58
2023/04/20 03:07:30;;;;;;;6.35;2.10;;;8.00;99.90;;;;;;5053068;28;20045;-58
2023/04/20 03:09:56;;;;;;;6.75;2.42;;;8.00;99.90;;;;;;5054469;28;20094;-59
2023/04/20 03:12:22;;;;;;;6.78;2.10;;;8.00;99.90;;;;;;5052551;28;20040;-58
2023/04/20 03:14:48;;;;;;;5.82;2.22;;;8.10;99.90;;;;;;5053763;28;20386;-58
2023/04/20 03:17:13;;;;;;;7.78;2.67;;;8.10;99.90;;;;;;5052302;28;20489;-59
2023/04/20 03:19:40;;;;;;;12.40;2.47;;;8.10;99.90;;;;;;5052904;28;20056;-58
2023/04/20 03:22:06;;;;;;;6.80;2.03;;;8.10;99.90;;;;;;5054640;28;20080;-58
2023/04/20 03:24:32;;;;;;;7.90;2.42;;;8.10;99.90;;;;;;5051728;28;20041;-58
2023/04/20 03:26:57;;;;;;;8.90;2.80;;;8.00;99.90;;;;;;5054285;28;20048;-59
2023/04/20 03:29:23;;;;;;;8.38;2.72;;;8.10;99.90;;;;;;5054047;28;20032;-58
2023/04/20 03:31:48;;;;;;;10.40;2.65;;;8.10;99.90;;;;;;5053724;28;20044;-59
2023/04/20 03:34:14;;;;;;;7.68;2.38;;;8.10;99.90;;;;;;5054353;28;20037;-58
2023/04/20 03:36:40;;;;;;;10.68;3.05;;;8.10;99.90;;;;;;5052596;28;20404;-58
2023/04/20 03:39:06;;;;;;;10.10;2.70;;;8.10;99.90;;;;;;5053554;28;20040;-58
2023/04/20 03:41:31;;;;;;;5.60;2.40;;;8.10;99.90;;;;;;5053535;28;20037;-58
2023/04/20 03:43:57;;;;;;;6.55;2.13;;;8.20;99.90;;;;;;5052643;28;20104;-58
2023/04/20 03:46:23;;;;;;;5.43;2.00;;;8.20;99.90;;;;;;5051119;28;20448;-59
2023/04/20 03:48:48;;;;;;;7.63;2.58;;;8.20;99.90;;;;;;5052725;28;20055;-59
2023/04/20 03:51:14;;;;;;;7.38;2.58;;;8.20;99.90;;;;;;5052873;28;20041;-58
2023/04/20 03:53:40;;;;;;;6.22;2.35;;;8.20;99.90;;;;;;5052758;28;20075;-58
2023/04/20 03:56:06;;;;;;;5.82;2.08;;;8.20;99.90;;;;;;5052896;28;20037;-58
2023/04/20 03:58:32;;;;;;;5.00;2.33;;;8.20;99.90;;;;;;5052220;28;20075;-59
2023/04/20 04:01:08;;;;;;;6.63;2.10;;;8.20;99.90;;;;;;5051805;28;20545;-59
2023/04/20 04:03:34;;;;;;;5.28;2.00;;;8.20;99.90;;;;;;5052043;28;20045;-59
2023/04/20 04:06:00;;;;;;;7.85;2.20;;;8.30;99.90;;;;;;5052380;28;20045;-58
2023/04/20 04:08:26;;;;;;;6.25;2.03;;;8.30;99.90;;;;;;5052100;28;20063;-59
2023/04/20 04:10:52;;;;;;;5.78;1.77;;;8.30;99.90;;;;;;5052547;28;20060;-58
2023/04/20 04:13:17;;;;;;;7.20;2.00;;;8.30;99.90;;;;;;5051136;28;20379;-58
2023/04/20 04:15:43;;;;;;;7.93;2.50;;;8.30;99.90;;;;;;5051919;28;20119;-58
2023/04/20 04:18:09;;;;;;;7.60;2.10;;;8.30;99.90;;;;;;5052243;28;20083;-59
2023/04/20 04:20:34;;;;;;;7.50;2.50;;;8.30;99.90;;;;;;5050662;28;20044;-59
2023/04/20 04:23:00;;;;;;;5.18;1.83;;;8.30;99.90;;;;;;5053445;28;20045;-58
2023/04/20 04:25:27;;;;;;;8.50;2.88;;;8.30;99.90;;;;;;5052479;28;20409;-58
2023/04/20 04:27:53;;;;;;;7.45;2.00;;;8.40;99.90;;;;;;5067826;28;20043;-59
2023/04/20 04:30:19;;;;;;;12.02;2.20;;;8.30;99.90;;;;;;5053246;28;20123;-59
2023/04/20 04:32:45;;;;;;;7.85;2.63;;;8.40;99.90;;;;;;5053214;28;20113;-59
2023/04/20 04:35:12;;;;;;;7.72;2.67;;;8.40;99.90;;;;;;5051405;28;20482;-59
2023/04/20 04:37:38;;;;;;;5.65;1.73;;;8.30;99.90;;;;;;5034715;28;20051;-59
2023/04/20 04:40:07;;;;;;;5.35;1.80;;;8.30;99.90;;;;;;5051637;28;20127;-58
2023/04/20 04:42:34;;;;;;;5.68;1.92;;;8.30;99.90;;;;;;5050425;28;20037;-58
2023/04/20 04:45:03;;;;;;;8.77;1.95;;;8.30;99.90;;;;;;5051741;28;20053;-58
2023/04/20 04:47:33;;;;;;;10.48;2.40;;;8.30;99.90;;;;;;5051098;28;20049;-59
2023/04/20 04:50:00;;;;;;;7.22;2.17;;;8.30;99.90;;;;;;5050981;28;20041;-58
2023/04/20 04:52:27;;;;;;;10.50;2.28;;;8.30;99.90;;;;;;5050958;28;20040;-59
2023/04/20 04:54:53;;;;;;;5.88;2.00;;;8.20;99.90;;;;;;5051799;28;20048;-58
2023/04/20 04:57:18;;;;;;;5.75;2.65;;;8.20;99.90;;;;;;5051645;28;20052;-58
2023/04/20 04:59:44;;;;;;;4.07;1.50;;;8.20;99.90;;;;;;5051865;28;20064;-59
2023/04/20 05:02:10;;;;;;;6.18;2.40;;;8.20;99.90;;;;;;5035104;28;20112;-59
2023/04/20 05:04:35;;;;;;;12.13;3.35;;;8.20;99.90;;;;;;5050063;28;20409;-59
2023/04/20 05:07:01;;;;;;;7.07;2.75;;;8.20;99.90;;;;;;5052451;28;20037;-58
2023/04/20 05:09:32;;;;;;;9.45;2.70;;;8.20;99.90;;;;;;5051663;28;20045;-59
2023/04/20 05:11:59;;;;;;;6.57;2.00;;;8.20;99.90;;;;;;5051186;28;20481;-59
2023/04/20 05:14:25;;;;;;;7.30;2.10;;;8.20;99.90;;;;;;5050948;28;20370;-58
2023/04/20 05:16:51;;;;;;;10.60;2.58;;;8.20;99.90;;;;;;5050227;28;20047;-58
2023/04/20 05:19:17;;;;;;;5.30;2.05;;;8.30;99.90;;;;;;5050981;28;20041;-59
2023/04/20 05:21:43;;;;;;;5.95;2.00;;;8.30;99.90;;;;;;5067531;28;20085;-58
2023/04/20 05:24:08;;;;;;;5.82;2.58;;;8.30;99.90;;;;;;5051749;28;20075;-58
2023/04/20 05:26:34;;;;;;;7.07;1.92;;;8.30;99.90;;;;;;5050535;28;20041;-59
2023/04/20 05:29:00;;;;;;;6.78;1.98;;;8.30;99.90;;;;;;5050734;28;20482;-59
2023/04/20 05:31:26;;;;;;;5.55;1.73;;;8.30;99.90;;;;;;5049855;28;20124;-59
2023/04/20 05:33:52;;;;;;;6.38;2.20;;;8.30;99.90;;;;;;5052304;28;20036;-58
2023/04/20 05:36:17;;;;;;;8.68;1.80;;;8.30;99.90;;;;;;5033736;28;20067;-59
2023/04/20 05:38:43;;;;;;;6.40;1.90;;;8.40;99.90;;;;;;5049951;28;20044;-58
2023/04/20 05:41:09;;;;;;;7.95;2.42;;;8.40;99.90;;;;;;5050795;28;20048;-58
2023/04/20 05:43:34;;;;;;;6.13;2.85;;;8.40;99.90;;;;;;5050159;28;20080;-58
2023/04/20 05:46:00;;;;;;;5.75;1.80;;;8.40;99.90;;;;;;5051265;28;20370;-59
2023/04/20 05:48:26;;;;;;;5.07;1.60;;;8.40;99.90;;;;;;5051010;28;20037;-58
2023/04/20 05:50:52;;;;;;;7.55;2.45;;;8.40;99.90;;;;;;5050979;28;20037;-59
2023/04/20 05:53:18;;;;;;;5.80;2.22;;;8.40;99.90;;;;;;5051162;28;20044;-58
2023/04/20 05:55:44;;;;;;;9.65;2.03;;;8.40;99.90;;;;;;5050435;28;20037;-58
2023/04/20 05:58:10;;;;;;;6.32;1.85;;;8.40;99.90;;;;;;5051974;28;20051;-59
2023/04/20 06:00:36;;;;;;;4.80;1.92;;;8.40;99.90;;;;;;5049732;28;20056;-58
2023/04/20 06:03:02;;;;;;;5.75;1.83;;;8.40;99.90;;;;;;5050628;28;20041;-59
2023/04/20 06:05:28;;;;;;;6.38;1.70;;;8.40;99.90;;;;;;5049989;28;20053;-58
2023/04/20 06:07:53;;;;;;;4.97;1.70;;;8.40;99.90;;;;;;5065915;28;20052;-59
2023/04/20 06:10:19;;;;;;;6.63;2.33;;;8.40;99.90;;;;;;5052352;28;20055;-59
2023/04/20 06:12:46;;;;;;;5.45;2.60;;;8.40;99.90;;;;;;5054444;28;20443;-59
2023/04/20 06:15:12;;;;;;;4.50;2.20;;;8.30;99.90;;;;;;5054675;28;20041;-58
2023/04/20 06:17:39;;;;;;;6.45;1.75;;;8.30;99.90;;;;;;5050283;28;20037;-59
2023/04/20 06:20:09;;;;;;;5.93;2.55;;;8.30;99.90;;;;;;5030939;28;20064;-58
2023/04/20 06:22:35;;;;;;;8.40;2.75;;;8.30;99.90;;;;;;5048606;28;20048;-59
2023/04/20 06:25:01;;;;;;;6.15;2.40;;;8.20;99.90;;;;;;5036361;28;20485;-59
2023/04/20 06:27:27;;;;;;;5.65;1.60;;;8.20;99.90;;;;;;5050064;28;20090;-58
2023/04/20 06:29:53;;;;;;;7.35;2.17;;;8.10;99.90;;;;;;5051211;28;20045;-59
2023/04/20 06:32:19;;;;;;;5.85;1.77;;;8.10;99.90;;;;;;5050607;28;20041;-58
2023/04/20 06:34:46;;;;;;;6.32;1.85;;;8.10;99.90;;;;;;5050434;28;20044;-59
2023/04/20 06:37:12;;;;;;;6.68;2.13;;;8.10;99.90;;;;;;5047900;28;20049;-58
2023/04/20 06:39:38;;;;;;;7.63;1.80;;;8.10;99.90;;;;;;5050457;28;20090;-58
2023/04/20 06:42:04;;;;;;;5.30;1.80;;;8.10;99.90;;;;;;5066474;28;20444;-58
2023/04/20 06:44:29;;;;;;;4.05;1.65;;;8.10;99.90;;;;;;5048891;28;20048;-59
2023/04/20 06:46:55;;;;;;;6.90;1.80;;;8.10;99.90;;;;;;5051105;28;20086;-59
2023/04/20 06:49:21;;;;;;;7.88;1.70;;;8.00;99.90;;;;;;5049336;28;20033;-59
2023/04/20 06:51:47;;;;;;;10.35;4.43;;;8.00;99.90;;;;;;5051328;28;20033;-59
2023/04/20 06:54:12;;;;;;;6.60;1.92;;;7.90;99.90;;;;;;5049536;28;20114;-60
2023/04/20 06:56:38;;;;;;;6.63;2.92;;;8.00;99.90;;;;;;5039261;28;20045;-59
2023/04/20 06:59:04;;;;;;;4.88;2.10;;;7.90;99.90;;;;;;5025717;28;20037;-59
2023/04/20 07:01:30;;;;;;;5.30;2.20;;;7.90;99.90;;;;;;5050999;28;20120;-60
2023/04/20 07:03:55;;;;;;;5.05;1.83;;;7.80;99.90;;;;;;5049733;28;20478;-60
2023/04/20 07:06:21;;;;;;;5.25;1.85;;;7.80;99.90;;;;;;5055336;28;20037;-59
2023/04/20 07:08:47;;;;;;;5.50;1.75;;;7.80;99.90;;;;;;5033749;28;20057;-59
2023/04/20 07:11:12;;;;;;;3.65;1.45;;;7.80;99.90;;;;;;5048211;28;20041;-59
2023/04/20 07:13:38;;;;;;;5.38;2.22;;;7.70;99.90;;;;;;5049315;28;20033;-59
2023/04/20 07:16:04;;;;;;;3.55;1.58;;;7.60;99.90;;;;;;5051475;28;20044;-59
2023/04/20 07:18:30;;;;;;;5.55;2.22;;;7.50;99.90;;;;;;5066034;28;20043;-59
2023/04/20 07:20:55;;;;;;;7.82;2.75;;;7.30;99.90;;;;;;5048159;28;20051;-60
2023/04/20 07:23:21;;;;;;;6.35;2.58;;;7.20;99.90;;;;;;5040948;28;20090;-59
2023/04/20 07:25:47;;;;;;;5.57;2.10;;;7.00;99.90;;;;;;5050310;28;20048;-59
2023/04/20 07:28:12;;;;;;;8.57;3.10;;;6.90;99.90;;;;;;5050735;28;20466;-60
2023/04/20 07:30:38;;;;;;;6.22;2.45;;;6.80;99.90;;;;;;5048745;28;20041;-59
2023/04/20 07:33:04;;;;;;;7.32;1.95;;;6.80;99.90;;;;;;5049828;28;20524;-59
2023/04/20 07:35:30;;;;;;;8.80;2.30;;;6.70;99.90;;;;;;5048302;28;20132;-60
2023/04/20 07:37:55;;;;;;;8.13;2.30;;;6.70;99.90;;;;;;5035125;28;20478;-59
2023/04/20 07:40:21;;;;;;;5.72;2.10;;;6.70;99.90;;;;;;5049658;28;20129;-59
2023/04/20 07:42:47;;;;;;;6.50;2.20;;;6.70;99.90;;;;;;5051489;28;20064;-59
2023/04/20 07:45:13;;;;;;;7.43;2.70;;;6.70;99.90;;;;;;5049882;28;20059;-60
2023/04/20 07:47:39;;;;;;;11.23;2.83;;;6.70;99.90;;;;;;5049523;28;20076;-59
2023/04/20 07:50:06;;;;;;;6.57;2.63;;;6.80;99.90;;;;;;5051276;28;20397;-59
2023/04/20 07:52:31;;;;;;;5.43;2.60;;;6.70;99.90;;;;;;5048276;28;20037;-59
2023/04/20 07:54:58;;;;;;;6.38;2.13;;;6.70;99.90;;;;;;5049745;28;20115;-59
2023/04/20 07:57:24;;;;;;;6.55;2.13;;;6.70;99.90;;;;;;5049157;28;20048;-59
2023/04/20 07:59:51;;;;;;;6.35;2.58;;;6.80;99.90;;;;;;5064809;28;20115;-59
2023/04/20 08:02:16;;;;;;;5.53;2.45;;;6.70;99.90;;;;;;5049159;28;20045;-60
2023/04/20 08:04:43;;;;;;;4.85;2.28;;;6.70;99.90;;;;;;5049560;28;20048;-59
2023/04/20 08:07:09;;;;;;;6.13;2.80;;;6.70;99.90;;;;;;5064655;28;20041;-60
2023/04/20 08:09:35;;;;;;;7.65;2.30;;;6.80;99.90;;;;;;5048543;28;20057;-59
2023/04/20 08:12:01;;;;;;;14.82;3.78;;;6.80;99.90;;;;;;5048626;28;20409;-59
2023/04/20 08:14:27;;;;;;;7.25;3.13;;;6.80;99.90;;;;;;5047010;28;20032;-59
2023/04/20 08:16:52;;;;;;;7.32;3.92;;;6.80;99.90;;;;;;5046677;28;20465;-59
2023/04/20 08:19:18;;;;;;;6.15;2.33;;;6.80;99.90;;;;;;5050317;28;20116;-59
2023/04/20 08:21:44;;;;;;;8.43;2.72;;;6.90;99.90;;;;;;5049783;28;20047;-59
2023/04/20 08:24:09;;;;;;;7.10;2.45;;;6.90;99.90;;;;;;5048348;28;20452;-60
2023/04/20 08:26:36;;;;;;;7.38;2.72;;;7.00;99.90;;;;;;5064955;28;20148;-59
2023/04/20 08:29:02;;;;;;;7.47;2.92;;;6.90;99.90;;;;;;5050537;28;20052;-59
2023/04/20 08:31:28;;;;;;;4.82;2.40;;;6.90;99.90;;;;;;5064193;28;20033;-59
2023/04/20 08:33:53;;;;;;;8.73;2.95;;;6.80;99.90;;;;;;5047565;28;20489;-60
2023/04/20 08:36:19;;;;;;;9.20;3.55;;;6.80;99.90;;;;;;5046813;28;20036;-59
2023/04/20 08:38:45;;;;;;;9.40;3.55;;;6.80;99.90;;;;;;5047855;28;20033;-60
2023/04/20 08:41:12;;;;;;;7.57;2.65;;;6.80;99.90;;;;;;5048892;28;20481;-59
2023/04/20 08:43:38;;;;;;;5.10;2.15;;;6.90;99.90;;;;;;5031567;28;20128;-60
2023/04/20 08:46:04;;;;;;;7.85;2.38;;;6.90;99.90;;;;;;5032217;28;20041;-59
2023/04/20 08:48:40;;;;;;;5.07;2.60;;;6.90;99.90;;;;;;5048493;28;20041;-59
2023/04/20 08:51:06;;;;;;;13.10;3.28;;;6.90;99.90;;;;;;5050356;28;20040;-59
2023/04/20 08:53:32;;;;;;;8.98;3.13;;;6.90;99.90;;;;;;5064427;28;20037;-59
2023/04/20 08:55:58;;;;;;;7.93;3.00;;;6.90;99.90;;;;;;5049403;28;20079;-59
2023/04/20 08:58:28;;;;;;;6.32;2.60;;;6.90;99.90;;;;;;5063724;28;20157;-60
2023/04/20 09:00:54;;;;;;;6.53;2.90;;;6.90;99.90;;;;;;5048677;28;20051;-60
2023/04/20 09:03:33;;;;;;;7.70;2.70;;;6.90;99.90;;;;;;5047581;28;20499;-59
2023/04/20 09:05:59;;;;;;;13.63;5.75;;;6.90;99.90;;;;;;5048165;28;20048;-60
2023/04/20 09:08:34;;;;;;;15.55;7.15;;;6.90;99.90;;;;;;5048782;28;20371;-60
2023/04/20 09:11:00;;;;;;;7.72;4.05;;;6.90;99.90;;;;;;5048941;28;20080;-60
2023/04/20 09:13:26;;;;;;;11.23;7.32;;;6.90;99.90;;;;;;5064643;28;20083;-60
2023/04/20 09:15:51;;;;;;;9.95;5.63;;;6.90;99.90;;;;;;5031328;28;20084;-60
2023/04/20 09:18:17;;;;;;;9.63;6.13;;;6.90;99.90;;;;;;5064788;28;20091;-60
2023/04/20 09:20:43;;;;;;;10.52;4.03;;;6.90;99.90;;;;;;5065187;28;20045;-61
2023/04/20 09:23:18;;;;;;;7.13;4.13;;;6.90;99.90;;;;;;5064635;28;20571;-59
2023/04/20 09:25:46;;;;;;;6.47;3.20;;;6.80;99.90;;;;;;5064826;28;20041;-60
2023/04/20 09:28:12;;;;;;;7.60;3.17;;;6.80;99.90;;;;;;5048354;28;20041;-59
2023/04/20 09:30:47;;;;;;;7.68;2.67;;;6.80;99.90;;;;;;5061882;28;20116;-60
2023/04/20 09:33:13;;;;;;;6.68;4.03;;;6.90;99.90;;;;;;5048418;28;20119;-59
2023/04/20 09:35:40;;;;;;;6.75;3.67;;;6.90;99.90;;;;;;5045823;28;20888;-60
2023/04/20 09:38:07;;;;;;;5.63;2.97;;;7.00;99.90;;;;;;5048894;28;20389;-59
2023/04/20 09:40:33;;;;;;;8.00;3.28;;;7.00;99.90;;;;;;5031089;28;20040;-59
2023/04/20 09:43:07;;;;;;;8.45;3.20;;;7.00;99.90;;;;;;5047925;28;20048;-59
2023/04/20 09:45:33;;;;;;;8.00;3.00;;;7.00;99.90;;;;;;5048092;28;20918;-59
2023/04/20 09:47:59;;;;;;;8.18;3.15;;;7.00;99.90;;;;;;5049189;28;20076;-59
2023/04/20 09:50:25;;;;;;;6.80;3.05;;;7.00;99.90;;;;;;5031054;28;20120;-59
2023/04/20 09:52:52;;;;;;;10.20;3.83;;;7.10;99.90;;;;;;5047517;28;20116;-59
2023/04/20 09:55:18;;;;;;;6.15;2.80;;;7.20;99.90;;;;;;5048985;28;20144;-59
2023/04/20 09:57:44;;;;;;;10.02;3.20;;;7.20;99.90;;;;;;5047631;28;20485;-60
2023/04/20 10:00:11;;;;;;;11.10;3.97;;;7.40;99.90;;;;;;5047084;28;20045;-60
2023/04/20 10:02:38;;;;;;;7.22;3.05;;;7.50;99.90;;;;;;5047974;28;20040;-59
2023/04/20 10:05:04;;;;;;;7.57;3.13;;;7.50;99.90;;;;;;5046542;28;20473;-59
2023/04/20 10:07:31;;;;;;;6.95;3.08;;;7.60;99.90;;;;;;5030325;28;20049;-60
2023/04/20 10:10:04;;;;;;;6.57;2.97;;;7.60;99.90;;;;;;5047943;28;20409;-59
2023/04/20 10:12:29;;;;;;;8.65;3.00;;;7.70;99.90;;;;;;5029596;28;20044;-60
2023/04/20 10:15:00;;;;;;;8.05;3.83;;;8.00;99.90;;;;;;5048194;28;20048;-60
2023/04/20 10:17:30;;;;;;;6.20;2.75;;;8.10;99.90;;;;;;5047001;28;20095;-59
2023/04/20 10:19:56;;;;;;;8.77;3.47;;;8.10;99.90;;;;;;5047340;28;20044;-59
2023/04/20 10:22:32;;;;;;;8.00;2.97;;;8.10;99.90;;;;;;5047308;28;20084;-59
2023/04/20 10:25:13;;;;;;;6.47;3.00;;;8.00;99.90;;;;;;5031193;28;20084;-59
2023/04/20 10:27:38;;;;;;;9.18;5.18;;;8.00;99.90;;;;;;5047465;28;20394;-59
2023/04/20 10:30:09;;;;;;;12.07;3.40;;;8.00;99.90;;;;;;5064285;28;20041;-59
2023/04/20 10:32:35;;;;;;;9.27;4.47;;;7.90;99.90;;;;;;5063388;28;20505;-60
2023/04/20 10:35:03;;;;;;;9.90;4.13;;;8.00;99.90;;;;;;5045750;28;20073;-59
2023/04/20 10:37:30;;;;;;;10.02;5.05;;;8.10;99.90;;;;;;5043930;28;20067;-59
2023/04/20 10:39:57;;;;;;;8.90;4.07;;;8.20;99.90;;;;;;5048455;28;20182;-59
2023/04/20 10:42:22;;;;;;;9.40;3.85;;;8.20;99.90;;;;;;5046693;28;20052;-59
2023/04/20 10:44:50;;;;;;;9.02;4.65;;;8.30;99.90;;;;;;5048361;28;20045;-59
2023/04/20 10:47:17;;;;;;;7.93;4.97;;;8.30;99.90;;;;;;5046129;28;20076;-59
2023/04/20 10:49:43;;;;;;;6.55;3.25;;;8.40;99.90;;;;;;5046423;28;20163;-60
2023/04/20 10:52:09;;;;;;;11.13;4.03;;;8.40;99.90;;;;;;5046992;28;20110;-59
2023/04/20 10:54:39;;;;;;;7.30;3.25;;;8.40;99.90;;;;;;5049517;28;20116;-60
2023/04/20 10:57:06;;;;;;;8.57;4.43;;;8.30;99.90;;;;;;5052042;28;20047;-60
2023/04/20 10:59:36;;;;;;;7.00;3.85;;;8.30;99.90;;;;;;5036508;28;20044;-59
2023/04/20 11:02:06;;;;;;;8.68;4.07;;;8.40;99.90;;;;;;5053064;28;20049;-60
2023/04/20 11:04:33;;;;;;;12.45;6.22;;;8.30;99.90;;;;;;5053936;28;20052;-60
2023/04/20 11:07:06;;;;;;;8.00;4.25;;;8.30;99.90;;;;;;5053674;28;20041;-59
2023/04/20 11:09:33;;;;;;;9.57;5.72;;;8.30;99.90;;;;;;5052108;28;20078;-59
2023/04/20 11:12:04;;;;;;;7.50;4.47;;;8.20;99.90;;;;;;5053638;28;20127;-59
2023/04/20 11:14:39;;;;;;;6.85;3.65;;;8.20;99.90;;;;;;5052671;28;20513;-60
2023/04/20 11:17:05;;;;;;;7.38;3.00;;;8.20;99.90;;;;;;5054102;28;20120;-59
2023/04/20 11:19:35;;;;;;;9.23;4.10;;;8.10;99.90;;;;;;5052693;28;20485;-59
2023/04/20 11:22:03;;;;;;;10.80;4.57;;;8.00;99.90;;;;;;5036882;28;20087;-60
2023/04/20 11:24:33;;;;;;;10.63;4.45;;;8.00;99.90;;;;;;5052293;28;20128;-59
2023/04/20 11:27:03;;;;;;;10.93;4.65;;;8.10;99.90;;;;;;5053525;28;20401;-59
2023/04/20 11:29:34;;;;;;;7.90;3.90;;;8.10;99.90;;;;;;5052013;28;20080;-60
2023/04/20 11:32:03;;;;;;;8.23;4.38;;;8.20;99.90;;;;;;5054530;28;20123;-59
2023/04/20 11:34:29;;;;;;;8.00;4.72;;;8.10;99.90;;;;;;5053646;28;20086;-60
2023/04/20 11:36:55;;;;;;;7.47;3.22;;;8.20;99.90;;;;;;5052272;28;20071;-60
2023/04/20 11:39:23;;;;;;;11.00;4.35;;;8.20;99.90;;;;;;5053490;28;20043;-59
2023/04/20 11:41:49;;;;;;;7.38;4.28;;;8.20;99.90;;;;;;5053208;28;20033;-59
2023/04/20 11:44:15;;;;;;;10.25;5.22;;;8.20;99.90;;;;;;5052569;28;20044;-59
2023/04/20 11:46:42;;;;;;;8.88;5.10;;;8.20;99.90;;;;;;5035791;28;20037;-59
2023/04/20 11:49:08;;;;;;;10.05;5.25;;;8.30;99.90;;;;;;5054090;28;20083;-59
2023/04/20 11:51:34;;;;;;;10.25;5.53;;;8.30;99.90;;;;;;5053103;28;20416;-59
2023/04/20 11:54:00;;;;;;;10.13;5.28;;;8.40;99.90;;;;;;5069111;28;20037;-59
2023/04/20 11:56:26;;;;;;;10.73;6.70;;;8.60;99.90;;;;;;5052395;28;20068;-59
2023/04/20 11:58:51;;;;;;;12.82;6.78;;;8.80;99.90;;;;;;5051956;28;20548;-59
2023/04/20 12:01:17;;;;;;;11.10;5.35;;;8.90;99.90;;;;;;5053734;28;20045;-59
2023/04/20 12:03:43;;;;;;;9.27;4.65;;;9.00;99.90;;;;;;5052314;28;20048;-59
2023/04/20 12:06:08;;;;;;;8.45;4.50;;;9.00;99.90;;;;;;5051857;28;20049;-59
2023/04/20 12:08:34;;;;;;;20.98;12.13;;;9.00;99.90;;;;;;5052828;28;20049;-59
2023/04/20 12:11:00;;;;;;;24.27;12.40;;;8.90;99.90;;;;;;5052546;28;20039;-59
2023/04/20 12:13:26;;;;;;;19.98;11.77;;;8.90;99.90;;;;;;5051248;28;20029;-60
2023/04/20 12:15:52;;;;;;;12.35;7.45;;;9.00;99.90;;;;;;5052696;28;20124;-60
2023/04/20 12:18:18;;;;;;;8.93;5.40;;;9.00;99.90;;;;;;5053147;28;20037;-60
2023/04/20 12:20:45;;;;;;;9.63;5.00;;;9.10;99.90;;;;;;5052705;28;20158;-60
2023/04/20 12:23:11;;;;;;;11.40;6.57;;;9.20;99.90;;;;;;5053710;28;20049;-60
2023/04/20 12:25:37;;;;;;;9.82;4.22;;;9.30;99.90;;;;;;5052486;28;20043;-60
2023/04/20 12:28:05;;;;;;;7.25;4.65;;;9.30;99.90;;;;;;5052002;28;20037;-60
2023/04/20 12:30:33;;;;;;;13.65;7.70;;;9.20;99.90;;;;;;5052422;28;20044;-60
2023/04/20 12:32:59;;;;;;;12.88;6.60;;;9.10;99.90;;;;;;5051204;28;20068;-60
2023/04/20 12:35:25;;;;;;;9.35;4.32;;;9.10;99.90;;;;;;5051368;28;20040;-60
2023/04/20 12:37:50;;;;;;;9.27;4.43;;;9.20;99.90;;;;;;5050737;28;20037;-60
2023/04/20 12:40:16;;;;;;;14.68;8.88;;;9.30;99.90;;;;;;5046853;28;20040;-60
2023/04/20 12:42:42;;;;;;;13.98;8.15;;;9.60;99.90;;;;;;5049505;28;20037;-60
2023/04/20 12:45:08;;;;;;;10.95;6.55;;;9.90;99.90;;;;;;5048941;28;20059;-60
2023/04/20 12:47:34;;;;;;;12.50;6.85;;;10.30;99.90;;;;;;5030749;28;20945;-60
2023/04/20 12:50:00;;;;;;;11.88;6.45;;;10.50;99.90;;;;;;5048696;28;20068;-60
2023/04/20 12:52:25;;;;;;;9.38;5.97;;;10.60;99.90;;;;;;5049256;28;20036;-60